createdAt,value
2023-05-03T00:00:35.846Z,0.93
2023-05-03T00:03:04.923Z,1.05
2023-05-03T00:05:32.155Z,0.93
2023-05-03T00:08:02.710Z,1.10
2023-05-03T00:10:29.677Z,1.27
2023-05-03T00:12:56.807Z,1.17
2023-05-03T00:15:24.060Z,1.23
2023-05-03T00:17:51.540Z,1.27
2023-05-03T00:20:19.330Z,1.10
2023-05-03T00:22:46.306Z,0.93
2023-05-03T00:25:13.308Z,1.73
2023-05-03T00:27:40.394Z,1.00
2023-05-03T00:30:12.350Z,1.08
2023-05-03T00:32:39.393Z,1.13
2023-05-03T00:35:07.305Z,1.00
2023-05-03T00:37:34.464Z,1.23
2023-05-03T00:40:03.347Z,1.85
2023-05-03T00:42:30.544Z,1.00
2023-05-03T00:44:57.418Z,1.30
2023-05-03T00:47:24.882Z,1.10
2023-05-03T00:49:51.989Z,1.10
2023-05-03T00:52:19.133Z,1.10
2023-05-03T00:54:46.517Z,1.42
2023-05-03T00:57:14.175Z,1.27
2023-05-03T00:59:41.360Z,0.85
2023-05-03T01:02:08.791Z,1.33
2023-05-03T01:04:37.273Z,1.35
2023-05-03T01:07:38.648Z,1.00
2023-05-03T01:10:31.819Z,0.95
2023-05-03T01:13:28.518Z,1.25
2023-05-03T01:16:39.052Z,1.02
2023-05-03T01:19:30.947Z,1.35
2023-05-03T01:22:28.839Z,0.77
2023-05-03T01:25:09.313Z,1.00
2023-05-03T01:27:38.192Z,1.20
2023-05-03T01:30:08.529Z,0.70
2023-05-03T01:32:59.350Z,1.30
2023-05-03T01:36:02.296Z,1.08
2023-05-03T01:38:36.185Z,1.25
2023-05-03T01:41:11.653Z,0.90
2023-05-03T01:43:40.803Z,1.20
2023-05-03T01:46:08.470Z,0.90
2023-05-03T01:48:35.465Z,1.10
2023-05-03T01:51:02.456Z,1.20
2023-05-03T01:53:29.460Z,1.30
2023-05-03T01:55:56.454Z,1.17
2023-05-03T01:58:23.520Z,1.23
2023-05-03T02:00:50.540Z,1.20
2023-05-03T02:03:17.752Z,1.33
2023-05-03T02:05:44.749Z,0.93
2023-05-03T02:08:11.809Z,1.02
2023-05-03T02:10:38.749Z,1.15
2023-05-03T02:13:06.085Z,1.23
2023-05-03T02:15:33.434Z,2.15
2023-05-03T02:18:02.676Z,1.13
2023-05-03T02:20:35.881Z,0.93
2023-05-03T02:23:02.783Z,1.40
2023-05-03T02:25:30.194Z,0.93
2023-05-03T02:27:57.260Z,1.17
2023-05-03T02:30:24.175Z,1.10
2023-05-03T02:32:51.174Z,0.80
2023-05-03T02:35:18.297Z,1.13
2023-05-03T02:37:45.326Z,1.00
2023-05-03T02:40:12.637Z,1.40
2023-05-03T02:42:40.834Z,1.00
2023-05-03T02:45:08.308Z,0.80
2023-05-03T02:47:35.587Z,1.02
2023-05-03T02:50:02.663Z,1.17
2023-05-03T02:52:29.740Z,0.95
2023-05-03T02:54:56.964Z,1.10
2023-05-03T02:57:24.050Z,1.27
2023-05-03T02:59:51.119Z,1.50
2023-05-03T03:02:18.671Z,1.08
2023-05-03T03:04:45.651Z,0.93
2023-05-03T03:07:12.839Z,0.90
2023-05-03T03:09:39.740Z,0.80
2023-05-03T03:12:06.802Z,0.88
2023-05-03T03:14:35.064Z,1.73
2023-05-03T03:17:04.878Z,1.00
2023-05-03T03:19:31.785Z,0.90
2023-05-03T03:21:58.777Z,0.93
2023-05-03T03:24:26.774Z,0.80
2023-05-03T03:26:53.738Z,1.20
2023-05-03T03:29:20.828Z,0.80
2023-05-03T03:31:47.744Z,0.88
2023-05-03T03:34:14.777Z,1.00
2023-05-03T03:36:41.687Z,0.90
2023-05-03T03:39:08.527Z,1.05
2023-05-03T03:41:36.377Z,0.90
2023-05-03T03:44:03.416Z,0.70
2023-05-03T03:46:30.373Z,1.63
2023-05-03T03:48:57.460Z,0.80
2023-05-03T03:51:24.875Z,0.93
2023-05-03T03:53:51.983Z,0.88
2023-05-03T03:56:18.978Z,0.88
2023-05-03T03:58:46.125Z,0.95
2023-05-03T04:01:13.077Z,0.82
2023-05-03T04:03:40.283Z,0.73
2023-05-03T04:06:07.433Z,0.75
2023-05-03T04:08:34.823Z,1.25
2023-05-03T04:11:02.949Z,0.95
2023-05-03T04:13:29.884Z,0.80
2023-05-03T04:15:56.998Z,0.90
2023-05-03T04:18:24.082Z,0.93
2023-05-03T04:20:51.903Z,1.30
2023-05-03T04:23:18.835Z,1.13
2023-05-03T04:25:48.770Z,0.90
2023-05-03T04:28:15.895Z,0.68
2023-05-03T04:30:47.467Z,0.82
2023-05-03T04:33:14.652Z,0.75
2023-05-03T04:35:41.719Z,0.80
2023-05-03T04:38:09.759Z,0.68
2023-05-03T04:40:37.686Z,0.70
2023-05-03T04:43:05.551Z,0.63
2023-05-03T04:45:33.024Z,0.85
2023-05-03T04:48:00.012Z,0.88
2023-05-03T04:50:27.066Z,0.80
2023-05-03T04:52:54.289Z,1.67
2023-05-03T04:55:21.384Z,1.00
2023-05-03T04:57:48.330Z,0.95
2023-05-03T05:00:16.544Z,0.80
2023-05-03T05:02:45.721Z,0.70
2023-05-03T05:05:12.791Z,1.10
2023-05-03T05:07:39.749Z,0.70
2023-05-03T05:10:07.947Z,0.70
2023-05-03T05:12:35.104Z,0.90
2023-05-03T05:15:02.068Z,0.60
2023-05-03T05:17:29.615Z,0.88
2023-05-03T05:19:56.641Z,0.63
2023-05-03T05:22:23.717Z,0.60
2023-05-03T05:24:50.783Z,1.45
2023-05-03T05:27:21.323Z,0.73
2023-05-03T05:29:48.205Z,0.70
2023-05-03T05:32:15.584Z,2.28
2023-05-03T05:34:45.645Z,0.90
2023-05-03T05:37:12.871Z,1.15
2023-05-03T05:39:39.933Z,3.80
2023-05-03T05:42:09.889Z,1.45
2023-05-03T05:44:37.221Z,0.77
2023-05-03T05:47:05.136Z,0.75
2023-05-03T05:49:36.252Z,0.98
2023-05-03T05:52:03.464Z,0.80
2023-05-03T05:54:30.658Z,0.70
2023-05-03T05:56:59.486Z,3.45
2023-05-03T05:59:26.955Z,0.77
2023-05-03T06:01:55.522Z,3.35
2023-05-03T06:04:22.767Z,0.93
2023-05-03T06:06:50.005Z,0.98
2023-05-03T06:11:50.303Z,1.25
2023-05-03T06:14:19.400Z,0.80
2023-05-03T06:16:46.943Z,2.35
2023-05-03T06:19:14.651Z,1.10
2023-05-03T06:21:41.626Z,4.30
2023-05-03T06:24:08.825Z,1.73
2023-05-03T06:26:35.855Z,3.55
2023-05-03T06:29:04.343Z,3.70
2023-05-03T06:31:31.905Z,1.88
2023-05-03T06:33:59.138Z,3.45
2023-05-03T06:46:01.162Z,1.77
2023-05-03T06:48:30.752Z,1.00
2023-05-03T06:50:58.036Z,1.98
2023-05-03T06:53:25.627Z,3.00
2023-05-03T06:55:52.721Z,1.45
2023-05-03T06:58:19.576Z,2.28
2023-05-03T07:00:47.200Z,1.20
2023-05-03T07:03:14.845Z,3.42
2023-05-03T07:05:42.149Z,2.47
2023-05-03T07:08:09.117Z,2.65
2023-05-03T07:10:36.881Z,2.70
2023-05-03T07:13:03.775Z,1.50
2023-05-03T07:15:31.381Z,1.23
2023-05-03T07:18:01.612Z,2.20
2023-05-03T07:20:28.754Z,1.20
2023-05-03T07:22:55.785Z,1.80
2023-05-03T07:25:22.965Z,2.45
2023-05-03T07:27:50.598Z,3.72
2023-05-03T07:30:18.056Z,2.88
2023-05-03T07:32:46.723Z,3.15
2023-05-03T07:35:17.959Z,2.92
2023-05-03T07:37:45.551Z,2.50
2023-05-03T07:40:13.075Z,1.80
2023-05-03T07:42:41.087Z,1.65
2023-05-03T07:45:11.900Z,2.35
2023-05-03T07:47:40.368Z,1.17
2023-05-03T07:50:08.714Z,2.10
2023-05-03T07:52:38.067Z,1.98
2023-05-03T07:55:07.092Z,1.60
2023-05-03T07:57:39.204Z,2.33
2023-05-03T08:00:11.240Z,3.08
2023-05-03T08:02:38.788Z,1.92
2023-05-03T08:05:07.526Z,4.15
2023-05-03T08:07:35.313Z,3.30
2023-05-03T08:10:02.934Z,3.88
2023-05-03T08:12:30.125Z,2.08
2023-05-03T08:15:00.692Z,4.03
2023-05-03T08:17:28.072Z,1.25
2023-05-03T08:19:57.180Z,2.28
2023-05-03T08:22:26.828Z,2.63
2023-05-03T08:24:56.683Z,3.83
2023-05-03T08:27:26.163Z,2.35
2023-05-03T08:29:53.403Z,2.83
2023-05-03T08:32:22.504Z,1.63
2023-05-03T08:34:54.776Z,2.05
2023-05-03T08:37:22.067Z,1.45
2023-05-03T08:39:49.194Z,2.13
2023-05-03T08:42:16.308Z,2.08
2023-05-03T08:44:51.287Z,1.67
2023-05-03T08:47:18.366Z,2.30
2023-05-03T08:49:45.442Z,1.75
2023-05-03T08:52:16.764Z,1.40
2023-05-03T08:54:49.416Z,1.65
2023-05-03T08:57:17.925Z,1.27
2023-05-03T08:59:58.769Z,1.48
2023-05-03T09:02:27.480Z,1.02
2023-05-03T09:04:57.092Z,1.90
2023-05-03T09:07:24.142Z,1.00
2023-05-03T09:09:51.704Z,1.10
2023-05-03T09:12:41.440Z,1.85
2023-05-03T09:15:08.998Z,2.60
2023-05-03T09:17:36.197Z,2.63
2023-05-03T09:20:03.925Z,1.02
2023-05-03T09:22:34.468Z,2.38
2023-05-03T09:25:02.034Z,2.20
2023-05-03T09:27:29.539Z,3.92
2023-05-03T09:29:57.238Z,2.50
2023-05-03T09:32:25.221Z,2.97
2023-05-03T09:35:09.994Z,1.52
2023-05-03T09:37:40.230Z,1.60
2023-05-03T09:40:08.784Z,1.30
2023-05-03T09:42:36.329Z,1.05
2023-05-03T09:45:03.931Z,1.75
2023-05-03T09:47:32.265Z,1.73
2023-05-03T09:50:00.292Z,1.67
2023-05-03T09:52:30.533Z,1.85
2023-05-03T09:54:58.173Z,3.28
2023-05-03T09:57:27.040Z,0.93
2023-05-03T09:59:54.227Z,1.05
2023-05-03T10:02:21.924Z,0.60
2023-05-03T10:04:53.808Z,2.92
2023-05-03T10:07:28.632Z,1.05
2023-05-03T10:09:58.078Z,1.08
2023-05-03T10:12:27.684Z,1.33
2023-05-03T10:14:57.072Z,0.95
2023-05-03T10:17:43.376Z,0.68
2023-05-03T10:20:36.975Z,2.90
2023-05-03T10:23:11.500Z,1.85
2023-05-03T10:26:00.732Z,0.90
2023-05-03T10:28:31.272Z,2.58
2023-05-03T10:30:58.263Z,1.75
2023-05-03T10:33:35.540Z,1.13
2023-05-03T10:36:13.306Z,2.03
2023-05-03T10:38:44.169Z,0.82
2023-05-03T10:41:11.647Z,1.25
2023-05-03T10:43:43.301Z,0.75
2023-05-03T10:46:32.164Z,1.02
2023-05-03T10:49:21.874Z,0.80
2023-05-03T10:51:50.279Z,0.75
2023-05-03T10:54:19.453Z,1.52
2023-05-03T10:56:52.075Z,1.77
2023-05-03T10:59:19.958Z,0.77
2023-05-03T11:01:51.380Z,0.90
2023-05-03T11:04:42.212Z,1.48
2023-05-03T11:07:10.411Z,1.90
2023-05-03T11:09:37.637Z,1.95
2023-05-03T11:12:07.178Z,2.50
2023-05-03T11:14:34.531Z,1.77
2023-05-03T11:17:06.312Z,2.78
2023-05-03T11:19:33.600Z,3.70
2023-05-03T11:22:02.415Z,4.45
2023-05-03T11:24:29.644Z,3.13
2023-05-03T11:26:57.206Z,4.68
2023-05-03T11:29:26.272Z,6.05
2023-05-03T11:31:59.744Z,2.65
2023-05-03T11:34:27.224Z,3.45
2023-05-03T11:36:54.148Z,3.28
2023-05-03T11:39:21.771Z,2.50
2023-05-03T11:42:05.605Z,3.95
2023-05-03T11:44:32.883Z,2.53
2023-05-03T11:47:00.560Z,4.15
2023-05-03T11:49:27.960Z,2.88
2023-05-03T11:51:56.361Z,2.53
2023-05-03T11:54:27.032Z,2.97
2023-05-03T11:57:00.964Z,3.90
2023-05-03T11:59:39.653Z,4.88
2023-05-03T12:02:10.409Z,4.20
2023-05-03T12:04:43.056Z,1.85
2023-05-03T12:07:13.492Z,3.65
2023-05-03T12:09:44.100Z,6.57
2023-05-03T12:12:24.739Z,5.00
2023-05-03T12:15:00.622Z,3.42
2023-05-03T12:17:44.200Z,3.35
2023-05-03T12:23:05.357Z,2.67
2023-05-03T12:25:34.813Z,2.10
2023-05-03T12:28:19.652Z,1.30
2023-05-03T12:30:47.939Z,2.28
2023-05-03T12:33:22.833Z,2.15
2023-05-03T12:35:53.367Z,2.60
2023-05-03T12:38:23.889Z,2.95
2023-05-03T12:40:53.221Z,1.63
2023-05-03T12:43:20.420Z,2.88
2023-05-03T12:45:56.135Z,1.77
2023-05-03T12:48:32.842Z,2.55
2023-05-03T12:51:17.738Z,6.03
2023-05-03T12:53:47.888Z,1.20
2023-05-03T12:56:15.362Z,2.70
2023-05-03T12:58:58.433Z,0.98
2023-05-03T13:04:11.961Z,1.83
2023-05-03T13:06:48.334Z,5.13
2023-05-03T13:11:48.928Z,2.13
2023-05-03T13:14:19.737Z,1.48
2023-05-03T13:16:47.402Z,1.92
2023-05-03T13:19:15.272Z,1.98
2023-05-03T13:21:43.043Z,3.40
2023-05-03T13:24:10.295Z,5.05
2023-05-03T13:26:37.357Z,4.30
2023-05-03T13:29:05.185Z,6.07
2023-05-03T13:31:32.116Z,3.17
2023-05-03T13:33:59.062Z,1.85
2023-05-03T13:36:27.763Z,2.67
2023-05-03T13:38:54.908Z,3.55
2023-05-03T13:41:22.547Z,2.38
2023-05-03T13:43:49.520Z,2.85
2023-05-03T13:46:16.870Z,3.00
2023-05-03T13:48:44.124Z,2.15
2023-05-03T13:51:14.482Z,3.05
2023-05-03T13:53:45.907Z,7.22
2023-05-03T13:56:13.243Z,3.15
2023-05-03T13:58:41.402Z,6.05
2023-05-03T14:01:09.519Z,4.35
2023-05-03T14:03:36.477Z,3.50
2023-05-03T14:06:03.631Z,5.68
2023-05-03T14:08:31.355Z,5.78
2023-05-03T14:10:58.501Z,3.72
2023-05-03T14:13:25.657Z,2.78
2023-05-03T14:15:53.121Z,2.03
2023-05-03T14:18:20.786Z,3.40
2023-05-03T14:20:50.549Z,1.75
2023-05-03T14:23:19.650Z,2.63
2023-05-03T14:25:47.483Z,2.00
2023-05-03T14:28:15.064Z,2.70
2023-05-03T14:30:42.014Z,4.82
2023-05-03T14:33:10.692Z,2.22
2023-05-03T14:35:38.094Z,6.15
2023-05-03T14:38:08.696Z,3.53
2023-05-03T14:40:35.801Z,3.83
2023-05-03T14:43:02.940Z,3.17
2023-05-03T14:45:30.072Z,2.45
2023-05-03T14:47:57.502Z,3.65
2023-05-03T14:50:24.719Z,5.15
2023-05-03T14:52:51.766Z,3.55
2023-05-03T14:55:19.392Z,3.08
2023-05-03T14:57:46.560Z,3.08
2023-05-03T15:00:15.136Z,3.15
2023-05-03T15:02:42.644Z,2.15
2023-05-03T15:05:10.835Z,4.55
2023-05-03T15:07:38.109Z,3.92
2023-05-03T15:10:06.676Z,4.85
2023-05-03T15:12:38.150Z,2.88
2023-05-03T15:15:07.796Z,3.25
2023-05-03T15:17:34.669Z,1.98
2023-05-03T15:20:02.164Z,4.00
2023-05-03T15:22:29.427Z,2.03
2023-05-03T15:24:56.383Z,1.88
2023-05-03T15:27:25.545Z,3.50
2023-05-03T15:29:52.552Z,1.35
2023-05-03T15:32:20.300Z,1.27
2023-05-03T15:34:53.041Z,2.47
2023-05-03T15:37:20.212Z,2.63
2023-05-03T15:39:47.378Z,2.22
2023-05-03T15:42:14.331Z,1.48
2023-05-03T15:44:42.080Z,3.55
2023-05-03T15:47:09.208Z,1.58
2023-05-03T15:49:36.233Z,1.25
2023-05-03T15:52:03.763Z,1.92
2023-05-03T15:54:30.996Z,3.13
2023-05-03T15:56:59.222Z,2.58
2023-05-03T15:59:26.158Z,3.63
2023-05-03T16:01:53.923Z,2.70
2023-05-03T16:04:21.152Z,2.00
2023-05-03T16:06:48.535Z,1.80
2023-05-03T16:09:16.082Z,1.55
2023-05-03T16:11:43.377Z,1.30
2023-05-03T16:14:10.701Z,2.53
2023-05-03T16:16:39.090Z,1.42
2023-05-03T16:19:07.364Z,0.80
2023-05-03T16:21:37.802Z,1.88
2023-05-03T16:24:05.187Z,2.03
2023-05-03T16:26:34.500Z,3.58
2023-05-03T16:29:03.129Z,2.38
2023-05-03T16:31:31.191Z,3.13
2023-05-03T16:33:58.412Z,4.28
2023-05-03T16:36:25.588Z,4.43
2023-05-03T16:38:52.537Z,3.75
2023-05-03T16:41:21.428Z,4.15
2023-05-03T16:43:48.753Z,3.10
2023-05-03T16:46:16.313Z,1.92
2023-05-03T16:48:43.858Z,3.40
2023-05-03T16:51:10.912Z,4.25
2023-05-03T16:53:37.798Z,2.28
2023-05-03T16:56:05.179Z,3.67
2023-05-03T16:58:32.417Z,1.90
2023-05-03T17:00:59.802Z,2.50
2023-05-03T17:03:27.025Z,1.20
2023-05-03T17:05:57.652Z,2.72
2023-05-03T17:08:24.725Z,1.33
2023-05-03T17:10:51.860Z,2.28
2023-05-03T17:13:19.033Z,1.83
2023-05-03T17:15:49.262Z,1.13
2023-05-03T17:18:16.850Z,1.42
2023-05-03T17:20:43.861Z,2.10
2023-05-03T17:23:11.155Z,0.77
2023-05-03T17:25:39.213Z,2.25
2023-05-03T17:28:06.653Z,3.30
2023-05-03T17:30:34.859Z,3.50
2023-05-03T17:33:02.104Z,1.38
2023-05-03T17:35:29.472Z,1.63
2023-05-03T17:37:57.262Z,1.63
2023-05-03T17:40:25.344Z,1.88
2023-05-03T17:42:55.317Z,1.33
2023-05-03T17:45:25.243Z,1.40
2023-05-03T17:47:52.265Z,0.88
2023-05-03T17:50:19.744Z,1.02
2023-05-03T17:52:47.854Z,1.27
2023-05-03T17:55:16.116Z,1.45
2023-05-03T17:57:44.808Z,1.70
2023-05-03T18:00:15.627Z,1.77
2023-05-03T18:02:43.884Z,3.05
2023-05-03T18:05:12.220Z,1.30
2023-05-03T18:07:39.595Z,0.77
2023-05-03T18:10:07.749Z,1.38
2023-05-03T18:12:34.867Z,2.28
2023-05-03T18:15:01.953Z,0.90
2023-05-03T18:17:30.160Z,0.80
2023-05-03T18:19:57.203Z,0.80
2023-05-03T18:22:25.805Z,2.58
2023-05-03T18:24:56.803Z,0.98
2023-05-03T18:27:24.182Z,0.82
2023-05-03T18:29:51.457Z,1.33
2023-05-03T18:32:18.683Z,2.10
2023-05-03T18:34:48.114Z,1.50
2023-05-03T18:37:15.058Z,1.90
2023-05-03T18:39:42.833Z,1.60
2023-05-03T18:42:10.697Z,0.98
2023-05-03T18:44:39.645Z,1.23
2023-05-03T18:47:07.744Z,0.93
2023-05-03T18:49:34.920Z,1.55
2023-05-03T18:52:02.848Z,0.82
2023-05-03T18:54:29.828Z,1.10
2023-05-03T18:56:57.081Z,2.08
2023-05-03T18:59:24.187Z,1.17
2023-05-03T19:01:51.812Z,0.93
2023-05-03T19:04:18.930Z,1.35
2023-05-03T19:06:46.128Z,0.75
2023-05-03T19:09:13.745Z,1.48
2023-05-03T19:11:43.823Z,0.80
2023-05-03T19:14:10.938Z,1.13
2023-05-03T19:16:38.167Z,1.00
2023-05-03T19:19:05.240Z,1.83
2023-05-03T19:21:32.733Z,0.73
2023-05-03T19:24:00.167Z,0.88
2023-05-03T19:26:27.174Z,0.88
2023-05-03T19:28:54.178Z,0.82
2023-05-03T19:31:21.725Z,1.27
2023-05-03T19:33:48.837Z,0.70
2023-05-03T19:36:16.046Z,0.88
2023-05-03T19:38:43.095Z,0.85
2023-05-03T19:41:12.357Z,0.95
2023-05-03T19:43:40.619Z,0.98
2023-05-03T19:46:08.140Z,0.70
2023-05-03T19:48:35.345Z,1.10
2023-05-03T19:51:05.162Z,1.73
2023-05-03T19:53:32.224Z,0.80
2023-05-03T19:56:03.061Z,1.00
2023-05-03T19:58:32.113Z,0.80
2023-05-03T20:00:59.748Z,1.75
2023-05-03T20:03:27.760Z,1.25
2023-05-03T20:05:55.139Z,0.65
2023-05-03T20:08:22.599Z,0.77
2023-05-03T20:10:51.655Z,1.08
2023-05-03T20:13:18.825Z,0.70
2023-05-03T20:15:45.968Z,1.10
2023-05-03T20:18:13.040Z,1.17
2023-05-03T20:20:40.281Z,1.30
2023-05-03T20:23:07.832Z,1.20
2023-05-03T20:25:35.027Z,0.98
2023-05-03T20:28:01.963Z,1.08
2023-05-03T20:30:32.503Z,0.95
2023-05-03T20:32:59.702Z,1.00
2023-05-03T20:35:29.867Z,0.70
2023-05-03T20:37:57.138Z,1.00
2023-05-03T20:40:24.461Z,1.05
2023-05-03T20:42:52.030Z,1.05
2023-05-03T20:45:19.474Z,0.80
2023-05-03T20:47:46.527Z,0.77
2023-05-03T20:50:13.773Z,0.80
2023-05-03T20:52:43.412Z,0.90
2023-05-03T20:55:10.667Z,0.80
2023-05-03T20:57:42.104Z,1.15
2023-05-03T21:00:15.937Z,1.48
2023-05-03T21:02:46.479Z,1.00
2023-05-03T21:05:13.624Z,1.75
2023-05-03T21:07:43.789Z,0.98
2023-05-03T21:10:11.128Z,1.15
2023-05-03T21:12:38.542Z,1.00
2023-05-03T21:15:06.120Z,1.33
2023-05-03T21:17:33.216Z,1.38
2023-05-03T21:20:00.358Z,2.35
2023-05-03T21:22:27.338Z,1.00
2023-05-03T21:24:55.050Z,1.40
2023-05-03T21:27:22.277Z,1.40
2023-05-03T21:29:49.691Z,1.15
2023-05-03T21:32:17.189Z,1.10
2023-05-03T21:34:44.344Z,1.15
2023-05-03T21:37:12.469Z,1.15
2023-05-03T21:39:40.133Z,1.20
2023-05-03T21:42:07.192Z,1.02
2023-05-03T21:44:34.296Z,1.02
2023-05-03T21:47:01.950Z,0.90
2023-05-03T21:49:29.288Z,1.00
2023-05-03T21:51:56.269Z,1.02
2023-05-03T21:54:23.189Z,1.15
2023-05-03T21:56:50.505Z,0.85
2023-05-03T21:59:17.534Z,0.98
2023-05-03T22:01:45.106Z,1.00
2023-05-03T22:04:12.171Z,1.80
2023-05-03T22:06:39.097Z,1.33
2023-05-03T22:09:06.945Z,1.27
2023-05-03T22:11:33.859Z,1.38
2023-05-03T22:14:08.021Z,1.00
2023-05-03T22:16:37.852Z,0.90
2023-05-03T22:19:06.688Z,1.30
2023-05-03T22:21:35.325Z,1.02
2023-05-03T22:24:02.849Z,1.13
2023-05-03T22:26:29.915Z,1.33
2023-05-03T22:28:57.031Z,1.63
2023-05-03T22:31:24.890Z,1.50
2023-05-03T22:33:52.065Z,1.20
2023-05-03T22:36:21.968Z,1.35
2023-05-03T22:38:48.946Z,1.80
2023-05-03T22:41:15.818Z,0.90
2023-05-03T22:43:42.755Z,1.63
2023-05-03T22:46:09.743Z,2.75
2023-05-03T22:48:37.051Z,1.25
2023-05-03T22:51:04.925Z,1.55
2023-05-03T22:53:32.381Z,1.13
2023-05-03T22:56:04.152Z,1.27
2023-05-03T22:58:31.247Z,1.42
2023-05-03T23:00:59.626Z,1.33
2023-05-03T23:03:29.750Z,1.10
2023-05-03T23:05:57.205Z,1.38
2023-05-03T23:08:24.111Z,1.13
2023-05-03T23:10:51.157Z,1.10
2023-05-03T23:13:18.117Z,0.80
2023-05-03T23:15:45.229Z,1.10
2023-05-03T23:18:12.574Z,2.00
2023-05-03T23:20:39.476Z,1.52
2023-05-03T23:23:06.847Z,0.93
2023-05-03T23:25:34.149Z,1.95
2023-05-03T23:28:01.338Z,1.10
2023-05-03T23:30:28.779Z,1.02
2023-05-03T23:32:56.210Z,1.27
2023-05-03T23:35:23.509Z,1.23
2023-05-03T23:37:50.526Z,1.30
2023-05-03T23:40:17.996Z,1.02
2023-05-03T23:42:46.375Z,0.98
2023-05-03T23:45:13.443Z,1.00
2023-05-03T23:47:40.505Z,0.88
2023-05-03T23:50:08.816Z,1.13
2023-05-03T23:52:36.007Z,1.15
2023-05-03T23:55:04.592Z,1.10
2023-05-03T23:57:31.525Z,0.85
2023-05-03T23:59:58.546Z,1.30
